sensor_id;sensor_type;location;lat;lon;timestamp;temperature;humidity
5200;DHT22;2619;47.868;11.892;2022-11-11T00:00:26;1.90;99.90
5200;DHT22;2619;47.868;11.892;2022-11-11T00:02:54;1.80;99.90
5200;DHT22;2619;47.868;11.892;2022-11-11T00:05:20;1.70;99.90
5200;DHT22;2619;47.868;11.892;2022-11-11T00:07:46;1.80;99.90
5200;DHT22;2619;47.868;11.892;2022-11-11T00:10:12;1.80;99.90
5200;DHT22;2619;47.868;11.892;2022-11-11T00:12:37;1.80;99.90
5200;DHT22;2619;47.868;11.892;2022-11-11T00:15:03;1.90;99.90
5200;DHT22;2619;47.868;11.892;2022-11-11T00:17:29;1.90;99.90
5200;DHT22;2619;47.868;11.892;2022-11-11T00:20:13;1.90;99.90
5200;DHT22;2619;47.868;11.892;2022-11-11T00:22:57;1.80;99.90
5200;DHT22;2619;47.868;11.892;2022-11-11T00:25:41;1.80;99.90
5200;DHT22;2619;47.868;11.892;2022-11-11T00:28:07;1.80;99.90
5200;DHT22;2619;47.868;11.892;2022-11-11T00:30:33;1.80;99.90
5200;DHT22;2619;47.868;11.892;2022-11-11T00:32:58;1.80;99.90
5200;DHT22;2619;47.868;11.892;2022-11-11T00:35:24;1.70;99.90
5200;DHT22;2619;47.868;11.892;2022-11-11T00:38:13;1.70;99.90
5200;DHT22;2619;47.868;11.892;2022-11-11T00:40:58;1.60;99.90
5200;DHT22;2619;47.868;11.892;2022-11-11T00:43:24;1.60;99.90
5200;DHT22;2619;47.868;11.892;2022-11-11T00:45:50;1.80;99.90
5200;DHT22;2619;47.868;11.892;2022-11-11T00:48:16;1.80;99.90
5200;DHT22;2619;47.868;11.892;2022-11-11T00:51:00;2.00;99.90
5200;DHT22;2619;47.868;11.892;2022-11-11T00:53:28;2.00;99.90
5200;DHT22;2619;47.868;11.892;2022-11-11T00:55:55;2.00;99.90
5200;DHT22;2619;47.868;11.892;2022-11-11T00:58:21;2.00;99.90
5200;DHT22;2619;47.868;11.892;2022-11-11T01:00:48;2.00;99.90
5200;DHT22;2619;47.868;11.892;2022-11-11T01:03:18;2.00;99.90
5200;DHT22;2619;47.868;11.892;2022-11-11T01:05:44;2.00;99.90
5200;DHT22;2619;47.868;11.892;2022-11-11T01:08:10;2.00;99.90
5200;DHT22;2619;47.868;11.892;2022-11-11T01:10:36;1.90;99.90
5200;DHT22;2619;47.868;11.892;2022-11-11T01:13:25;1.90;99.90
5200;DHT22;2619;47.868;11.892;2022-11-11T01:15:56;2.00;99.90
5200;DHT22;2619;47.868;11.892;2022-11-11T01:18:24;1.90;99.90
5200;DHT22;2619;47.868;11.892;2022-11-11T01:21:23;1.70;99.90
5200;DHT22;2619;47.868;11.892;2022-11-11T01:23:50;1.80;99.90
5200;DHT22;2619;47.868;11.892;2022-11-11T01:28:48;2.00;99.90
5200;DHT22;2619;47.868;11.892;2022-11-11T01:31:14;1.90;99.90
5200;DHT22;2619;47.868;11.892;2022-11-11T01:33:40;1.80;99.90
5200;DHT22;2619;47.868;11.892;2022-11-11T01:36:09;1.60;99.90
5200;DHT22;2619;47.868;11.892;2022-11-11T01:38:35;1.50;99.90
5200;DHT22;2619;47.868;11.892;2022-11-11T01:41:02;1.50;99.90
5200;DHT22;2619;47.868;11.892;2022-11-11T01:43:48;1.60;99.90
5200;DHT22;2619;47.868;11.892;2022-11-11T01:46:25;1.40;99.90
5200;DHT22;2619;47.868;11.892;2022-11-11T01:48:56;1.30;99.90
5200;DHT22;2619;47.868;11.892;2022-11-11T01:54:47;1.20;99.90
5200;DHT22;2619;47.868;11.892;2022-11-11T01:57:25;1.30;99.90
5200;DHT22;2619;47.868;11.892;2022-11-11T01:59:56;1.30;99.90
5200;DHT22;2619;47.868;11.892;2022-11-11T02:02:42;1.20;99.90
5200;DHT22;2619;47.868;11.892;2022-11-11T02:05:12;1.30;99.90
5200;DHT22;2619;47.868;11.892;2022-11-11T02:08:01;1.40;99.90
5200;DHT22;2619;47.868;11.892;2022-11-11T02:10:30;1.40;99.90
5200;DHT22;2619;47.868;11.892;2022-11-11T02:12:56;1.30;99.90
5200;DHT22;2619;47.868;11.892;2022-11-11T02:15:40;1.20;99.90
5200;DHT22;2619;47.868;11.892;2022-11-11T02:18:06;1.10;99.90
5200;DHT22;2619;47.868;11.892;2022-11-11T02:20:42;1.10;99.90
5200;DHT22;2619;47.868;11.892;2022-11-11T02:23:29;1.00;99.90
5200;DHT22;2619;47.868;11.892;2022-11-11T02:25:57;1.00;99.90
5200;DHT22;2619;47.868;11.892;2022-11-11T02:28:25;1.10;99.90
5200;DHT22;2619;47.868;11.892;2022-11-11T02:30:51;1.10;99.90
5200;DHT22;2619;47.868;11.892;2022-11-11T02:33:17;1.00;99.90
5200;DHT22;2619;47.868;11.892;2022-11-11T02:35:48;1.00;99.90
5200;DHT22;2619;47.868;11.892;2022-11-11T02:38:26;1.10;99.90
5200;DHT22;2619;47.868;11.892;2022-11-11T02:40:52;1.00;99.90
5200;DHT22;2619;47.868;11.892;2022-11-11T02:43:36;1.00;99.90
5200;DHT22;2619;47.868;11.892;2022-11-11T02:46:03;1.10;99.90
5200;DHT22;2619;47.868;11.892;2022-11-11T02:48:29;1.20;99.90
5200;DHT22;2619;47.868;11.892;2022-11-11T02:50:55;1.20;99.90
5200;DHT22;2619;47.868;11.892;2022-11-11T02:53:22;1.20;99.90
5200;DHT22;2619;47.868;11.892;2022-11-11T02:55:48;1.10;99.90
5200;DHT22;2619;47.868;11.892;2022-11-11T02:58:14;1.00;99.90
5200;DHT22;2619;47.868;11.892;2022-11-11T03:00:39;0.90;99.90
5200;DHT22;2619;47.868;11.892;2022-11-11T03:03:07;0.90;99.90
5200;DHT22;2619;47.868;11.892;2022-11-11T03:05:32;1.00;99.90
5200;DHT22;2619;47.868;11.892;2022-11-11T03:07:58;1.00;99.90
5200;DHT22;2619;47.868;11.892;2022-11-11T03:10:23;0.90;99.90
5200;DHT22;2619;47.868;11.892;2022-11-11T03:12:49;0.90;99.90
5200;DHT22;2619;47.868;11.892;2022-11-11T03:15:15;0.80;99.90
5200;DHT22;2619;47.868;11.892;2022-11-11T03:17:40;0.70;99.90
5200;DHT22;2619;47.868;11.892;2022-11-11T03:20:14;0.70;99.90
5200;DHT22;2619;47.868;11.892;2022-11-11T03:23:13;0.80;99.90
5200;DHT22;2619;47.868;11.892;2022-11-11T03:25:44;0.90;99.90
5200;DHT22;2619;47.868;11.892;2022-11-11T03:28:18;1.00;99.90
5200;DHT22;2619;47.868;11.892;2022-11-11T03:30:48;0.90;99.90
5200;DHT22;2619;47.868;11.892;2022-11-11T03:33:14;0.90;99.90
5200;DHT22;2619;47.868;11.892;2022-11-11T03:35:41;0.80;99.90
5200;DHT22;2619;47.868;11.892;2022-11-11T03:38:09;0.90;99.90
5200;DHT22;2619;47.868;11.892;2022-11-11T03:40:55;0.90;99.90
5200;DHT22;2619;47.868;11.892;2022-11-11T03:43:26;0.80;99.90
5200;DHT22;2619;47.868;11.892;2022-11-11T03:45:53;0.70;99.90
5200;DHT22;2619;47.868;11.892;2022-11-11T03:48:19;0.60;99.90
5200;DHT22;2619;47.868;11.892;2022-11-11T03:50:46;0.60;99.90
5200;DHT22;2619;47.868;11.892;2022-11-11T03:53:12;0.60;99.90
5200;DHT22;2619;47.868;11.892;2022-11-11T03:55:39;0.60;99.90
5200;DHT22;2619;47.868;11.892;2022-11-11T03:58:05;0.50;99.90
5200;DHT22;2619;47.868;11.892;2022-11-11T04:00:30;0.50;99.90
5200;DHT22;2619;47.868;11.892;2022-11-11T04:03:12;0.60;99.90
5200;DHT22;2619;47.868;11.892;2022-11-11T04:05:57;0.80;99.90
5200;DHT22;2619;47.868;11.892;2022-11-11T04:08:42;0.90;99.90
5200;DHT22;2619;47.868;11.892;2022-11-11T04:11:34;0.70;99.90
5200;DHT22;2619;47.868;11.892;2022-11-11T04:14:09;0.70;99.90
5200;DHT22;2619;47.868;11.892;2022-11-11T04:16:53;0.60;99.90
5200;DHT22;2619;47.868;11.892;2022-11-11T04:19:19;0.50;99.90
5200;DHT22;2619;47.868;11.892;2022-11-11T04:22:03;0.50;99.90
5200;DHT22;2619;47.868;11.892;2022-11-11T04:24:29;0.50;99.90
5200;DHT22;2619;47.868;11.892;2022-11-11T04:27:15;0.60;99.90
5200;DHT22;2619;47.868;11.892;2022-11-11T04:29:41;0.60;99.90
5200;DHT22;2619;47.868;11.892;2022-11-11T04:32:09;0.70;99.90
5200;DHT22;2619;47.868;11.892;2022-11-11T04:34:57;0.80;99.90
5200;DHT22;2619;47.868;11.892;2022-11-11T04:37:24;0.70;99.90
5200;DHT22;2619;47.868;11.892;2022-11-11T04:39:50;0.70;99.90
5200;DHT22;2619;47.868;11.892;2022-11-11T04:42:34;0.70;99.90
5200;DHT22;2619;47.868;11.892;2022-11-11T04:45:00;0.80;99.90
5200;DHT22;2619;47.868;11.892;2022-11-11T04:48:11;0.80;99.90
5200;DHT22;2619;47.868;11.892;2022-11-11T04:50:39;0.80;99.90
5200;DHT22;2619;47.868;11.892;2022-11-11T04:53:07;0.80;99.90
5200;DHT22;2619;47.868;11.892;2022-11-11T04:55:34;0.80;99.90
5200;DHT22;2619;47.868;11.892;2022-11-11T04:58:21;0.80;99.90
5200;DHT22;2619;47.868;11.892;2022-11-11T05:00:47;0.70;99.90
5200;DHT22;2619;47.868;11.892;2022-11-11T05:03:13;0.70;99.90
5200;DHT22;2619;47.868;11.892;2022-11-11T05:06:09;0.70;99.90
5200;DHT22;2619;47.868;11.892;2022-11-11T05:08:53;0.70;99.90
5200;DHT22;2619;47.868;11.892;2022-11-11T05:11:30;0.70;99.90
5200;DHT22;2619;47.868;11.892;2022-11-11T05:13:58;0.70;99.90
5200;DHT22;2619;47.868;11.892;2022-11-11T05:16:44;0.60;99.90
5200;DHT22;2619;47.868;11.892;2022-11-11T05:19:28;0.60;99.90
5200;DHT22;2619;47.868;11.892;2022-11-11T05:22:16;0.60;99.90
5200;DHT22;2619;47.868;11.892;2022-11-11T05:24:42;0.60;99.90
5200;DHT22;2619;47.868;11.892;2022-11-11T05:27:27;0.60;99.90
5200;DHT22;2619;47.868;11.892;2022-11-11T05:29:53;0.70;99.90
5200;DHT22;2619;47.868;11.892;2022-11-11T05:32:20;0.70;99.90
5200;DHT22;2619;47.868;11.892;2022-11-11T05:34:46;0.80;99.90
5200;DHT22;2619;47.868;11.892;2022-11-11T05:37:12;0.80;99.90
5200;DHT22;2619;47.868;11.892;2022-11-11T05:39:37;0.80;99.90
5200;DHT22;2619;47.868;11.892;2022-11-11T05:42:03;0.80;99.90
5200;DHT22;2619;47.868;11.892;2022-11-11T05:44:29;0.70;99.90
5200;DHT22;2619;47.868;11.892;2022-11-11T05:46:54;0.70;99.90
5200;DHT22;2619;47.868;11.892;2022-11-11T05:49:20;0.60;99.90
5200;DHT22;2619;47.868;11.892;2022-11-11T05:51:47;0.60;99.90
5200;DHT22;2619;47.868;11.892;2022-11-11T05:54:13;0.60;99.90
5200;DHT22;2619;47.868;11.892;2022-11-11T05:56:39;0.80;99.90
5200;DHT22;2619;47.868;11.892;2022-11-11T05:59:05;0.80;99.90
5200;DHT22;2619;47.868;11.892;2022-11-11T06:01:31;0.70;99.90
5200;DHT22;2619;47.868;11.892;2022-11-11T06:03:57;0.70;99.90
5200;DHT22;2619;47.868;11.892;2022-11-11T06:06:22;0.70;99.90
5200;DHT22;2619;47.868;11.892;2022-11-11T06:08:48;0.80;99.90
5200;DHT22;2619;47.868;11.892;2022-11-11T06:11:14;0.90;99.90
5200;DHT22;2619;47.868;11.892;2022-11-11T06:13:39;0.80;99.90
5200;DHT22;2619;47.868;11.892;2022-11-11T06:16:05;0.70;99.90
5200;DHT22;2619;47.868;11.892;2022-11-11T06:18:31;0.80;99.90
5200;DHT22;2619;47.868;11.892;2022-11-11T06:20:57;0.90;99.90
5200;DHT22;2619;47.868;11.892;2022-11-11T06:23:24;0.80;99.90
5200;DHT22;2619;47.868;11.892;2022-11-11T06:25:51;0.90;99.90
5200;DHT22;2619;47.868;11.892;2022-11-11T06:28:35;0.90;99.90
5200;DHT22;2619;47.868;11.892;2022-11-11T06:31:01;1.00;99.90
5200;DHT22;2619;47.868;11.892;2022-11-11T06:33:27;1.10;99.90
5200;DHT22;2619;47.868;11.892;2022-11-11T06:35:53;1.10;99.90
5200;DHT22;2619;47.868;11.892;2022-11-11T06:38:19;1.10;99.90
5200;DHT22;2619;47.868;11.892;2022-11-11T06:40:45;1.20;99.90
5200;DHT22;2619;47.868;11.892;2022-11-11T06:43:11;1.30;99.90
5200;DHT22;2619;47.868;11.892;2022-11-11T06:45:37;1.50;99.90
5200;DHT22;2619;47.868;11.892;2022-11-11T06:48:03;1.60;99.90
5200;DHT22;2619;47.868;11.892;2022-11-11T06:50:33;1.70;99.90
5200;DHT22;2619;47.868;11.892;2022-11-11T06:53:25;1.90;99.90
5200;DHT22;2619;47.868;11.892;2022-11-11T06:55:53;2.00;99.90
5200;DHT22;2619;47.868;11.892;2022-11-11T06:58:19;2.10;99.90
5200;DHT22;2619;47.868;11.892;2022-11-11T07:00:46;2.20;99.90
5200;DHT22;2619;47.868;11.892;2022-11-11T07:03:14;2.30;99.90
5200;DHT22;2619;47.868;11.892;2022-11-11T07:05:40;2.40;99.90
5200;DHT22;2619;47.868;11.892;2022-11-11T07:08:08;2.50;99.90
5200;DHT22;2619;47.868;11.892;2022-11-11T07:10:36;2.50;99.90
5200;DHT22;2619;47.868;11.892;2022-11-11T07:13:03;2.50;99.90
5200;DHT22;2619;47.868;11.892;2022-11-11T07:15:28;2.60;99.90
5200;DHT22;2619;47.868;11.892;2022-11-11T07:17:54;2.60;99.90
5200;DHT22;2619;47.868;11.892;2022-11-11T07:20:20;2.60;99.90
5200;DHT22;2619;47.868;11.892;2022-11-11T07:22:46;2.60;99.90
5200;DHT22;2619;47.868;11.892;2022-11-11T07:25:11;2.70;99.90
5200;DHT22;2619;47.868;11.892;2022-11-11T07:27:38;2.80;99.90
5200;DHT22;2619;47.868;11.892;2022-11-11T07:30:05;2.80;99.90
5200;DHT22;2619;47.868;11.892;2022-11-11T07:32:31;2.90;99.90
5200;DHT22;2619;47.868;11.892;2022-11-11T07:34:57;3.00;99.90
5200;DHT22;2619;47.868;11.892;2022-11-11T07:37:23;3.00;99.90
5200;DHT22;2619;47.868;11.892;2022-11-11T07:39:48;3.10;99.90
5200;DHT22;2619;47.868;11.892;2022-11-11T07:42:14;3.20;99.90
5200;DHT22;2619;47.868;11.892;2022-11-11T07:44:40;3.30;99.90
5200;DHT22;2619;47.868;11.892;2022-11-11T07:47:06;3.30;99.90
5200;DHT22;2619;47.868;11.892;2022-11-11T07:49:31;3.50;99.90
5200;DHT22;2619;47.868;11.892;2022-11-11T07:51:57;3.60;99.90
5200;DHT22;2619;47.868;11.892;2022-11-11T07:54:23;3.70;99.90
5200;DHT22;2619;47.868;11.892;2022-11-11T07:56:48;3.80;99.90
5200;DHT22;2619;47.868;11.892;2022-11-11T07:59:14;3.90;99.90
5200;DHT22;2619;47.868;11.892;2022-11-11T08:01:40;4.00;99.90
5200;DHT22;2619;47.868;11.892;2022-11-11T08:04:05;4.10;99.90
5200;DHT22;2619;47.868;11.892;2022-11-11T08:06:31;4.10;99.90
5200;DHT22;2619;47.868;11.892;2022-11-11T08:08:56;4.20;99.90
5200;DHT22;2619;47.868;11.892;2022-11-11T08:11:22;4.30;99.90
5200;DHT22;2619;47.868;11.892;2022-11-11T08:14:06;4.40;99.90
5200;DHT22;2619;47.868;11.892;2022-11-11T08:16:32;4.60;99.90
5200;DHT22;2619;47.868;11.892;2022-11-11T08:18:58;4.70;99.90
5200;DHT22;2619;47.868;11.892;2022-11-11T08:21:24;4.80;99.90
5200;DHT22;2619;47.868;11.892;2022-11-11T08:23:50;5.10;99.90
5200;DHT22;2619;47.868;11.892;2022-11-11T08:26:16;5.20;99.90
5200;DHT22;2619;47.868;11.892;2022-11-11T08:28:43;5.40;99.90
5200;DHT22;2619;47.868;11.892;2022-11-11T08:31:09;5.60;99.90
5200;DHT22;2619;47.868;11.892;2022-11-11T08:33:36;5.80;99.90
5200;DHT22;2619;47.868;11.892;2022-11-11T08:36:02;6.10;99.90
5200;DHT22;2619;47.868;11.892;2022-11-11T08:38:28;6.30;99.90
5200;DHT22;2619;47.868;11.892;2022-11-11T08:40:54;6.50;99.90
5200;DHT22;2619;47.868;11.892;2022-11-11T08:43:20;6.60;99.90
5200;DHT22;2619;47.868;11.892;2022-11-11T08:45:47;6.80;99.90
5200;DHT22;2619;47.868;11.892;2022-11-11T08:48:16;6.90;99.90
5200;DHT22;2619;47.868;11.892;2022-11-11T08:50:41;7.00;99.90
5200;DHT22;2619;47.868;11.892;2022-11-11T08:53:08;7.10;99.90
5200;DHT22;2619;47.868;11.892;2022-11-11T08:55:34;7.10;99.90
5200;DHT22;2619;47.868;11.892;2022-11-11T08:58:03;7.20;99.90
5200;DHT22;2619;47.868;11.892;2022-11-11T09:00:30;7.20;99.90
5200;DHT22;2619;47.868;11.892;2022-11-11T09:03:00;7.20;99.90
5200;DHT22;2619;47.868;11.892;2022-11-11T09:05:27;7.30;99.90
5200;DHT22;2619;47.868;11.892;2022-11-11T09:07:52;7.40;99.90
5200;DHT22;2619;47.868;11.892;2022-11-11T09:10:18;7.50;99.90
5200;DHT22;2619;47.868;11.892;2022-11-11T09:12:43;7.60;99.90
5200;DHT22;2619;47.868;11.892;2022-11-11T09:15:09;7.60;99.90
5200;DHT22;2619;47.868;11.892;2022-11-11T09:17:35;7.70;99.90
5200;DHT22;2619;47.868;11.892;2022-11-11T09:20:00;7.80;99.90
5200;DHT22;2619;47.868;11.892;2022-11-11T09:22:26;7.90;99.90
5200;DHT22;2619;47.868;11.892;2022-11-11T09:24:52;8.10;99.90
5200;DHT22;2619;47.868;11.892;2022-11-11T09:27:17;8.30;99.90
5200;DHT22;2619;47.868;11.892;2022-11-11T09:29:43;8.50;99.90
5200;DHT22;2619;47.868;11.892;2022-11-11T09:32:09;8.70;99.90
5200;DHT22;2619;47.868;11.892;2022-11-11T09:34:34;8.90;99.90
5200;DHT22;2619;47.868;11.892;2022-11-11T09:37:00;9.10;99.90
5200;DHT22;2619;47.868;11.892;2022-11-11T09:39:25;9.30;99.90
5200;DHT22;2619;47.868;11.892;2022-11-11T09:47:20;9.60;99.90
5200;DHT22;2619;47.868;11.892;2022-11-11T09:50:16;9.90;99.90
5200;DHT22;2619;47.868;11.892;2022-11-11T09:52:51;10.10;99.90
5200;DHT22;2619;47.868;11.892;2022-11-11T09:55:27;10.30;99.90
5200;DHT22;2619;47.868;11.892;2022-11-11T09:58:08;10.40;99.90
5200;DHT22;2619;47.868;11.892;2022-11-11T10:00:36;10.60;99.90
5200;DHT22;2619;47.868;11.892;2022-11-11T10:03:14;10.80;99.90
5200;DHT22;2619;47.868;11.892;2022-11-11T10:05:46;11.00;99.90
5200;DHT22;2619;47.868;11.892;2022-11-11T10:08:20;11.10;99.90
5200;DHT22;2619;47.868;11.892;2022-11-11T10:10:52;11.10;99.90
5200;DHT22;2619;47.868;11.892;2022-11-11T10:13:32;11.30;99.90
5200;DHT22;2619;47.868;11.892;2022-11-11T10:21:33;11.60;99.90
5200;DHT22;2619;47.868;11.892;2022-11-11T10:24:05;11.60;99.90
5200;DHT22;2619;47.868;11.892;2022-11-11T10:26:36;11.60;99.90
5200;DHT22;2619;47.868;11.892;2022-11-11T10:29:08;11.70;99.90
5200;DHT22;2619;47.868;11.892;2022-11-11T10:31:34;11.80;99.90
5200;DHT22;2619;47.868;11.892;2022-11-11T10:34:11;11.70;99.90
5200;DHT22;2619;47.868;11.892;2022-11-11T10:36:43;11.80;99.90
5200;DHT22;2619;47.868;11.892;2022-11-11T10:39:15;11.80;99.90
5200;DHT22;2619;47.868;11.892;2022-11-11T10:41:48;11.90;99.90
5200;DHT22;2619;47.868;11.892;2022-11-11T10:44:25;12.10;99.90
5200;DHT22;2619;47.868;11.892;2022-11-11T10:47:20;12.20;99.90
5200;DHT22;2619;47.868;11.892;2022-11-11T10:52:49;12.40;99.90
5200;DHT22;2619;47.868;11.892;2022-11-11T10:55:32;12.20;99.90
5200;DHT22;2619;47.868;11.892;2022-11-11T10:58:11;12.10;99.90
5200;DHT22;2619;47.868;11.892;2022-11-11T11:00:40;12.00;99.90
5200;DHT22;2619;47.868;11.892;2022-11-11T11:03:15;11.80;99.90
5200;DHT22;2619;47.868;11.892;2022-11-11T11:06:09;11.80;99.90
5200;DHT22;2619;47.868;11.892;2022-11-11T11:08:43;11.70;99.90
5200;DHT22;2619;47.868;11.892;2022-11-11T11:13:57;11.60;99.90
5200;DHT22;2619;47.868;11.892;2022-11-11T11:16:36;11.60;99.90
5200;DHT22;2619;47.868;11.892;2022-11-11T11:19:23;11.50;99.90
5200;DHT22;2619;47.868;11.892;2022-11-11T11:21:50;11.50;99.90
5200;DHT22;2619;47.868;11.892;2022-11-11T11:24:32;11.70;99.90
5200;DHT22;2619;47.868;11.892;2022-11-11T11:27:02;11.60;99.90
5200;DHT22;2619;47.868;11.892;2022-11-11T11:32:19;11.80;99.90
5200;DHT22;2619;47.868;11.892;2022-11-11T11:34:53;11.70;99.90
5200;DHT22;2619;47.868;11.892;2022-11-11T11:37:21;11.70;99.90
5200;DHT22;2619;47.868;11.892;2022-11-11T11:39:48;11.80;99.90
5200;DHT22;2619;47.868;11.892;2022-11-11T11:42:28;11.90;99.90
5200;DHT22;2619;47.868;11.892;2022-11-11T11:44:54;12.00;99.90
5200;DHT22;2619;47.868;11.892;2022-11-11T11:50:16;12.50;99.90
5200;DHT22;2619;47.868;11.892;2022-11-11T12:01:03;13.50;99.90
5200;DHT22;2619;47.868;11.892;2022-11-11T12:09:06;14.00;99.90
5200;DHT22;2619;47.868;11.892;2022-11-11T12:11:50;14.10;99.90
5200;DHT22;2619;47.868;11.892;2022-11-11T12:25:19;13.70;99.90
5200;DHT22;2619;47.868;11.892;2022-11-11T12:28:12;13.50;99.90
5200;DHT22;2619;47.868;11.892;2022-11-11T12:30:55;13.10;99.90
5200;DHT22;2619;47.868;11.892;2022-11-11T12:44:38;12.40;99.90
5200;DHT22;2619;47.868;11.892;2022-11-11T12:47:24;12.40;99.90
5200;DHT22;2619;47.868;11.892;2022-11-11T12:49:53;12.30;99.90
5200;DHT22;2619;47.868;11.892;2022-11-11T12:52:45;12.20;99.90
5200;DHT22;2619;47.868;11.892;2022-11-11T12:55:29;12.10;99.90
5200;DHT22;2619;47.868;11.892;2022-11-11T13:00:57;11.80;99.90
5200;DHT22;2619;47.868;11.892;2022-11-11T13:09:00;11.90;99.90
5200;DHT22;2619;47.868;11.892;2022-11-11T13:14:40;12.10;99.90
5200;DHT22;2619;47.868;11.892;2022-11-11T13:17:12;12.20;99.90
5200;DHT22;2619;47.868;11.892;2022-11-11T13:19:40;12.20;99.90
5200;DHT22;2619;47.868;11.892;2022-11-11T13:24:37;12.10;99.90
5200;DHT22;2619;47.868;11.892;2022-11-11T13:27:03;11.90;99.90
5200;DHT22;2619;47.868;11.892;2022-11-11T13:29:44;11.80;99.90
5200;DHT22;2619;47.868;11.892;2022-11-11T13:32:16;11.70;99.90
5200;DHT22;2619;47.868;11.892;2022-11-11T13:34:43;11.60;99.90
5200;DHT22;2619;47.868;11.892;2022-11-11T13:37:24;11.50;99.90
5200;DHT22;2619;47.868;11.892;2022-11-11T13:39:59;11.40;99.90
5200;DHT22;2619;47.868;11.892;2022-11-11T13:42:30;11.30;99.90
5200;DHT22;2619;47.868;11.892;2022-11-11T13:45:00;11.30;99.90
5200;DHT22;2619;47.868;11.892;2022-11-11T13:47:36;11.30;99.90
5200;DHT22;2619;47.868;11.892;2022-11-11T13:50:28;11.20;99.90
5200;DHT22;2619;47.868;11.892;2022-11-11T13:53:06;11.10;99.90
5200;DHT22;2619;47.868;11.892;2022-11-11T13:55:42;11.20;99.90
5200;DHT22;2619;47.868;11.892;2022-11-11T13:58:28;11.10;99.90
5200;DHT22;2619;47.868;11.892;2022-11-11T14:01:00;11.20;99.90
5200;DHT22;2619;47.868;11.892;2022-11-11T14:03:30;11.20;99.90
5200;DHT22;2619;47.868;11.892;2022-11-11T14:13:53;11.40;99.90
5200;DHT22;2619;47.868;11.892;2022-11-11T14:27:15;10.90;99.90
5200;DHT22;2619;47.868;11.892;2022-11-11T14:29:53;10.80;99.90
5200;DHT22;2619;47.868;11.892;2022-11-11T14:40:32;10.40;99.90
5200;DHT22;2619;47.868;11.892;2022-11-11T14:42:59;10.40;99.90
5200;DHT22;2619;47.868;11.892;2022-11-11T14:54:03;9.90;99.90
5200;DHT22;2619;47.868;11.892;2022-11-11T14:56:31;9.80;99.90
5200;DHT22;2619;47.868;11.892;2022-11-11T14:59:05;9.80;99.90
5200;DHT22;2619;47.868;11.892;2022-11-11T15:01:31;9.70;99.90
5200;DHT22;2619;47.868;11.892;2022-11-11T15:04:01;9.60;99.90
5200;DHT22;2619;47.868;11.892;2022-11-11T15:07:00;9.50;99.90
5200;DHT22;2619;47.868;11.892;2022-11-11T15:15:26;9.10;99.90
5200;DHT22;2619;47.868;11.892;2022-11-11T15:21:42;8.70;99.90
5200;DHT22;2619;47.868;11.892;2022-11-11T15:24:26;8.60;99.90
5200;DHT22;2619;47.868;11.892;2022-11-11T15:27:09;8.40;99.90
5200;DHT22;2619;47.868;11.892;2022-11-11T15:32:54;8.00;99.90
5200;DHT22;2619;47.868;11.892;2022-11-11T15:37:53;7.70;99.90
5200;DHT22;2619;47.868;11.892;2022-11-11T15:40:25;7.60;99.90
5200;DHT22;2619;47.868;11.892;2022-11-11T15:42:52;7.40;99.90
5200;DHT22;2619;47.868;11.892;2022-11-11T15:47:46;7.10;99.90
5200;DHT22;2619;47.868;11.892;2022-11-11T15:50:17;7.00;99.90
5200;DHT22;2619;47.868;11.892;2022-11-11T15:52:56;7.00;99.90
5200;DHT22;2619;47.868;11.892;2022-11-11T15:55:33;6.80;99.90
5200;DHT22;2619;47.868;11.892;2022-11-11T15:58:16;6.70;99.90
5200;DHT22;2619;47.868;11.892;2022-11-11T16:00:44;6.60;99.90
5200;DHT22;2619;47.868;11.892;2022-11-11T16:03:43;6.50;99.90
5200;DHT22;2619;47.868;11.892;2022-11-11T16:06:14;6.30;99.90
5200;DHT22;2619;47.868;11.892;2022-11-11T16:08:42;6.30;99.90
5200;DHT22;2619;47.868;11.892;2022-11-11T16:11:11;6.10;99.90
5200;DHT22;2619;47.868;11.892;2022-11-11T16:13:54;5.90;99.90
5200;DHT22;2619;47.868;11.892;2022-11-11T16:16:28;5.70;99.90
5200;DHT22;2619;47.868;11.892;2022-11-11T16:21:43;5.60;99.90
5200;DHT22;2619;47.868;11.892;2022-11-11T16:24:26;5.60;99.90
5200;DHT22;2619;47.868;11.892;2022-11-11T16:26:52;5.70;99.90
5200;DHT22;2619;47.868;11.892;2022-11-11T16:29:18;5.60;99.90
5200;DHT22;2619;47.868;11.892;2022-11-11T16:31:45;5.50;99.90
5200;DHT22;2619;47.868;11.892;2022-11-11T16:37:05;5.40;99.90
5200;DHT22;2619;47.868;11.892;2022-11-11T16:39:32;5.40;99.90
5200;DHT22;2619;47.868;11.892;2022-11-11T16:42:06;5.30;99.90
5200;DHT22;2619;47.868;11.892;2022-11-11T16:50:21;5.30;99.90
5200;DHT22;2619;47.868;11.892;2022-11-11T16:52:56;5.20;99.90
5200;DHT22;2619;47.868;11.892;2022-11-11T16:55:31;5.10;99.90
5200;DHT22;2619;47.868;11.892;2022-11-11T16:58:08;5.00;99.90
5200;DHT22;2619;47.868;11.892;2022-11-11T17:00:35;4.90;99.90
5200;DHT22;2619;47.868;11.892;2022-11-11T17:03:17;4.80;99.90
5200;DHT22;2619;47.868;11.892;2022-11-11T17:06:04;4.80;99.90
5200;DHT22;2619;47.868;11.892;2022-11-11T17:08:37;4.80;99.90
5200;DHT22;2619;47.868;11.892;2022-11-11T17:11:04;4.90;99.90
5200;DHT22;2619;47.868;11.892;2022-11-11T17:13:32;4.90;99.90
5200;DHT22;2619;47.868;11.892;2022-11-11T17:16:00;4.80;99.90
5200;DHT22;2619;47.868;11.892;2022-11-11T17:18:36;4.90;99.90
5200;DHT22;2619;47.868;11.892;2022-11-11T17:21:02;4.90;99.90
5200;DHT22;2619;47.868;11.892;2022-11-11T17:23:28;4.80;99.90
5200;DHT22;2619;47.868;11.892;2022-11-11T17:25:54;4.80;99.90
5200;DHT22;2619;47.868;11.892;2022-11-11T17:28:21;4.80;99.90
5200;DHT22;2619;47.868;11.892;2022-11-11T17:30:47;4.80;99.90
5200;DHT22;2619;47.868;11.892;2022-11-11T17:33:12;4.60;99.90
5200;DHT22;2619;47.868;11.892;2022-11-11T17:35:40;4.50;99.90
5200;DHT22;2619;47.868;11.892;2022-11-11T17:38:16;4.50;99.90
5200;DHT22;2619;47.868;11.892;2022-11-11T17:40:49;4.40;99.90
5200;DHT22;2619;47.868;11.892;2022-11-11T17:43:22;4.40;99.90
5200;DHT22;2619;47.868;11.892;2022-11-11T17:45:51;4.40;99.90
5200;DHT22;2619;47.868;11.892;2022-11-11T17:48:17;4.40;99.90
5200;DHT22;2619;47.868;11.892;2022-11-11T17:50:43;4.40;99.90
5200;DHT22;2619;47.868;11.892;2022-11-11T17:53:08;4.40;99.90
5200;DHT22;2619;47.868;11.892;2022-11-11T17:55:34;4.40;99.90
5200;DHT22;2619;47.868;11.892;2022-11-11T17:58:00;4.40;99.90
5200;DHT22;2619;47.868;11.892;2022-11-11T18:00:27;4.30;99.90
5200;DHT22;2619;47.868;11.892;2022-11-11T18:02:53;4.30;99.90
5200;DHT22;2619;47.868;11.892;2022-11-11T18:05:18;4.20;99.90
5200;DHT22;2619;47.868;11.892;2022-11-11T18:07:44;4.10;99.90
5200;DHT22;2619;47.868;11.892;2022-11-11T18:10:11;4.10;99.90
5200;DHT22;2619;47.868;11.892;2022-11-11T18:12:37;4.20;99.90
5200;DHT22;2619;47.868;11.892;2022-11-11T18:15:05;4.20;99.90
5200;DHT22;2619;47.868;11.892;2022-11-11T18:17:31;4.30;99.90
5200;DHT22;2619;47.868;11.892;2022-11-11T18:19:56;4.30;99.90
5200;DHT22;2619;47.868;11.892;2022-11-11T18:22:22;4.40;99.90
5200;DHT22;2619;47.868;11.892;2022-11-11T18:24:48;4.50;99.90
5200;DHT22;2619;47.868;11.892;2022-11-11T18:27:14;4.50;99.90
5200;DHT22;2619;47.868;11.892;2022-11-11T18:29:40;4.60;99.90
5200;DHT22;2619;47.868;11.892;2022-11-11T18:32:06;4.60;99.90
5200;DHT22;2619;47.868;11.892;2022-11-11T18:34:32;4.60;99.90
5200;DHT22;2619;47.868;11.892;2022-11-11T18:36:57;4.60;99.90
5200;DHT22;2619;47.868;11.892;2022-11-11T18:39:23;4.60;99.90
5200;DHT22;2619;47.868;11.892;2022-11-11T18:41:49;4.60;99.90
5200;DHT22;2619;47.868;11.892;2022-11-11T18:44:14;4.60;99.90
5200;DHT22;2619;47.868;11.892;2022-11-11T18:46:40;4.60;99.90